createdAt,value
2018-07-08T00:02:14.019Z,84.00
2018-07-08T00:04:42.338Z,83.60
2018-07-08T00:07:10.597Z,83.70
2018-07-08T00:09:38.884Z,83.20
2018-07-08T00:12:07.236Z,84.60
2018-07-08T00:14:35.498Z,84.70
2018-07-08T00:17:03.801Z,84.80
2018-07-08T00:19:32.068Z,84.70
2018-07-08T00:22:00.361Z,84.80
2018-07-08T00:24:28.612Z,84.90
2018-07-08T00:26:56.903Z,85.50
2018-07-08T00:29:25.168Z,85.30
2018-07-08T00:31:53.419Z,84.90
2018-07-08T00:34:21.839Z,85.00
2018-07-08T00:36:50.098Z,85.50
2018-07-08T00:39:18.386Z,85.90
2018-07-08T00:41:46.676Z,85.90
2018-07-08T00:44:14.944Z,85.80
2018-07-08T00:46:43.218Z,85.90
2018-07-08T00:49:11.617Z,85.60
2018-07-08T00:51:39.871Z,86.50
2018-07-08T00:54:08.168Z,86.00
2018-07-08T00:56:36.420Z,86.20
2018-07-08T00:59:04.671Z,86.20
2018-07-08T01:01:32.958Z,86.20
2018-07-08T01:04:01.253Z,86.00
2018-07-08T01:06:29.565Z,86.30
2018-07-08T01:08:57.825Z,86.50
2018-07-08T01:11:26.123Z,86.50
2018-07-08T01:13:54.436Z,86.80
2018-07-08T01:16:22.716Z,86.80
2018-07-08T01:18:50.996Z,86.90
2018-07-08T01:21:19.261Z,87.00
2018-07-08T01:23:47.528Z,86.70
2018-07-08T01:26:15.794Z,87.50
2018-07-08T01:28:44.074Z,86.70
2018-07-08T01:31:13.054Z,86.90
2018-07-08T01:33:41.344Z,86.90
2018-07-08T01:36:10.116Z,87.80
2018-07-08T01:38:38.436Z,87.50
2018-07-08T01:41:06.819Z,87.00
2018-07-08T01:43:35.092Z,87.20
2018-07-08T01:46:03.368Z,87.60
2018-07-08T01:48:31.642Z,87.70
2018-07-08T01:50:59.899Z,87.50
2018-07-08T01:53:28.228Z,87.50
2018-07-08T01:55:56.612Z,88.30
2018-07-08T01:58:24.864Z,88.30
2018-07-08T02:00:53.150Z,88.60
2018-07-08T02:03:21.458Z,88.10
2018-07-08T02:05:49.778Z,88.40
2018-07-08T02:08:18.140Z,88.60
2018-07-08T02:10:49.341Z,88.10
2018-07-08T02:13:17.645Z,88.40
2018-07-08T02:15:45.926Z,88.60
2018-07-08T02:18:14.181Z,88.40
2018-07-08T02:20:42.463Z,88.30
2018-07-08T02:23:10.731Z,88.70
2018-07-08T02:25:39.068Z,88.60
2018-07-08T02:28:07.324Z,88.60
2018-07-08T02:30:35.580Z,88.70
2018-07-08T02:33:03.884Z,88.50
2018-07-08T02:35:32.142Z,88.80
2018-07-08T02:38:00.431Z,89.40
2018-07-08T02:40:28.744Z,88.70
2018-07-08T02:42:57.016Z,88.80
2018-07-08T02:45:25.301Z,88.80
2018-07-08T02:47:53.612Z,89.50
2018-07-08T02:50:21.944Z,89.10
2018-07-08T02:52:50.200Z,89.50
2018-07-08T02:55:18.521Z,89.30
2018-07-08T02:57:46.792Z,89.20
2018-07-08T03:00:15.077Z,89.10
2018-07-08T03:02:43.320Z,89.00
2018-07-08T03:05:11.577Z,89.60
2018-07-08T03:07:39.869Z,89.40
2018-07-08T03:10:08.236Z,89.70
2018-07-08T03:12:36.512Z,89.40
2018-07-08T03:15:04.979Z,89.40
2018-07-08T03:17:33.237Z,89.30
2018-07-08T03:20:01.520Z,90.00
2018-07-08T03:22:29.776Z,89.50
2018-07-08T03:24:58.025Z,89.90
2018-07-08T03:27:26.292Z,89.20
2018-07-08T03:29:54.556Z,89.70
2018-07-08T03:32:22.804Z,89.90
2018-07-08T03:34:51.065Z,89.90
2018-07-08T03:37:19.324Z,89.80
2018-07-08T03:39:47.576Z,90.20
2018-07-08T03:42:15.845Z,90.00
2018-07-08T03:44:44.101Z,90.00
2018-07-08T03:47:12.340Z,90.00
2018-07-08T03:49:40.584Z,90.00
2018-07-08T03:52:08.848Z,89.90
2018-07-08T03:54:37.099Z,89.80
2018-07-08T03:57:05.429Z,90.00
2018-07-08T03:59:33.692Z,89.90
2018-07-08T04:02:01.980Z,89.80
2018-07-08T04:04:30.240Z,89.50
2018-07-08T04:06:58.513Z,89.40
2018-07-08T04:09:26.748Z,88.80
2018-07-08T04:11:55.044Z,88.60
2018-07-08T04:14:23.288Z,88.20
2018-07-08T04:16:51.573Z,87.50
2018-07-08T04:19:19.841Z,86.40
2018-07-08T04:21:48.106Z,85.30
2018-07-08T04:24:16.352Z,84.20
2018-07-08T04:26:44.611Z,82.90
2018-07-08T04:29:12.892Z,81.90
2018-07-08T04:31:41.149Z,80.80
2018-07-08T04:34:09.427Z,79.40
2018-07-08T04:36:37.688Z,79.10
2018-07-08T04:39:06.992Z,79.30
2018-07-08T04:41:35.272Z,79.80
2018-07-08T04:44:03.698Z,81.00
2018-07-08T04:46:32.112Z,81.30
2018-07-08T04:49:00.417Z,81.20
2018-07-08T04:51:28.656Z,82.30
2018-07-08T04:53:56.944Z,82.00
2018-07-08T04:56:25.292Z,82.80
2018-07-08T04:58:53.529Z,82.60
2018-07-08T05:01:21.810Z,82.40
2018-07-08T05:03:50.053Z,82.70
2018-07-08T05:06:18.338Z,82.00
2018-07-08T05:08:46.591Z,82.30
2018-07-08T05:11:14.892Z,82.70
2018-07-08T05:13:43.137Z,81.80
2018-07-08T05:16:11.414Z,82.90
2018-07-08T05:18:39.663Z,82.30
2018-07-08T05:21:08.240Z,82.60
2018-07-08T05:23:36.501Z,82.10
2018-07-08T05:26:04.784Z,81.80
2018-07-08T05:28:33.031Z,81.80
2018-07-08T05:31:01.269Z,82.40
2018-07-08T05:33:29.524Z,82.70
2018-07-08T05:35:57.783Z,82.10
2018-07-08T05:38:26.050Z,82.40
2018-07-08T05:40:54.314Z,82.60
2018-07-08T05:43:22.573Z,82.70
2018-07-08T05:45:50.819Z,81.90
2018-07-08T05:48:19.071Z,81.50
2018-07-08T05:50:47.340Z,80.00
2018-07-08T05:53:15.592Z,81.10
2018-07-08T05:55:43.864Z,80.00
2018-07-08T05:58:12.133Z,78.80
2018-07-08T06:00:40.404Z,79.00
2018-07-08T06:03:08.672Z,77.00
2018-07-08T06:05:36.924Z,77.80
2018-07-08T06:08:05.188Z,77.80
2018-07-08T06:10:33.428Z,75.90
2018-07-08T06:13:01.681Z,75.10
2018-07-08T06:15:29.983Z,75.10
2018-07-08T06:17:58.199Z,75.20
2018-07-08T06:20:26.456Z,75.00
2018-07-08T06:22:54.778Z,75.30
2018-07-08T06:25:23.057Z,73.50
2018-07-08T06:27:51.292Z,74.00
2018-07-08T06:30:19.577Z,74.80
2018-07-08T06:32:47.842Z,75.80
2018-07-08T06:35:16.084Z,74.30
2018-07-08T06:37:44.345Z,74.50
2018-07-08T06:40:12.610Z,74.60
2018-07-08T06:42:40.896Z,73.70
2018-07-08T06:45:09.184Z,72.70
2018-07-08T06:47:37.445Z,72.10
2018-07-08T06:50:05.793Z,72.60
2018-07-08T06:52:34.064Z,70.90
2018-07-08T06:55:02.336Z,70.60
2018-07-08T06:57:30.612Z,72.80
2018-07-08T06:59:58.874Z,72.00
2018-07-08T07:02:27.146Z,69.60
2018-07-08T07:04:55.415Z,70.80
2018-07-08T07:07:23.716Z,66.00
2018-07-08T07:09:52.001Z,67.90
2018-07-08T07:12:20.264Z,66.40
2018-07-08T07:14:48.517Z,66.60
2018-07-08T07:17:16.807Z,66.20
2018-07-08T07:19:45.044Z,65.10
2018-07-08T07:22:13.300Z,66.80
2018-07-08T07:24:41.632Z,62.40
2018-07-08T07:27:09.876Z,63.60
2018-07-08T07:29:38.136Z,64.30
2018-07-08T07:32:06.431Z,63.80
2018-07-08T07:34:34.711Z,63.10
2018-07-08T07:37:03.064Z,62.30
2018-07-08T07:39:31.277Z,61.50
2018-07-08T07:41:59.545Z,60.60
2018-07-08T07:44:27.829Z,60.20
2018-07-08T07:46:56.093Z,61.00
2018-07-08T07:49:24.347Z,60.40
2018-07-08T07:51:52.596Z,61.00
2018-07-08T07:54:20.860Z,61.70
2018-07-08T07:56:49.116Z,61.20
2018-07-08T07:59:17.385Z,62.70
2018-07-08T08:01:45.650Z,63.70
2018-07-08T08:04:13.935Z,62.70
2018-07-08T08:06:42.224Z,60.20
2018-07-08T08:09:10.489Z,60.70
2018-07-08T08:11:38.784Z,61.00
2018-07-08T08:14:13.549Z,60.90
2018-07-08T08:16:41.804Z,62.40
2018-07-08T08:19:10.056Z,62.10
2018-07-08T08:21:38.328Z,60.30
2018-07-08T08:24:06.620Z,59.30
2018-07-08T08:26:34.941Z,59.30
2018-07-08T08:29:03.177Z,57.50
2018-07-08T08:31:31.437Z,58.40
2018-07-08T08:35:03.412Z,58.90
2018-07-08T08:37:33.737Z,57.70
2018-07-08T08:40:02.109Z,58.30
2018-07-08T08:42:30.444Z,59.00
2018-07-08T08:44:59.321Z,57.20
2018-07-08T08:47:28.082Z,59.00
2018-07-08T08:49:56.477Z,56.80
2018-07-08T08:52:24.760Z,58.20
2018-07-08T08:54:53.557Z,58.60
2018-07-08T08:57:22.076Z,59.10
2018-07-08T08:59:50.614Z,57.60
2018-07-08T09:02:18.888Z,55.80
2018-07-08T09:04:47.124Z,56.80
2018-07-08T09:07:16.640Z,56.70
2018-07-08T09:09:44.887Z,55.60
2018-07-08T09:12:13.404Z,56.30
2018-07-08T09:14:41.732Z,58.10
2018-07-08T09:17:10.475Z,54.70
2018-07-08T09:19:38.897Z,54.90
2018-07-08T09:22:08.156Z,55.30
2018-07-08T09:24:36.589Z,54.60
2018-07-08T09:27:05.112Z,54.20
2018-07-08T09:29:33.380Z,54.70
2018-07-08T09:32:01.671Z,53.80
2018-07-08T09:34:30.069Z,53.70
2018-07-08T09:36:58.309Z,54.80
2018-07-08T09:39:26.556Z,52.00
2018-07-08T09:41:54.824Z,52.60
2018-07-08T09:44:23.056Z,52.40
2018-07-08T09:46:51.341Z,52.80
2018-07-08T09:49:19.637Z,52.30
2018-07-08T09:51:48.252Z,51.60
2018-07-08T09:54:16.548Z,52.20
2018-07-08T09:56:44.797Z,52.70
2018-07-08T09:59:13.049Z,52.90
2018-07-08T10:01:46.247Z,52.80
2018-07-08T10:04:16.841Z,52.60
2018-07-08T10:06:45.919Z,51.40
2018-07-08T10:09:16.509Z,52.90
2018-07-08T10:11:44.818Z,50.60
2018-07-08T10:14:14.276Z,50.00
2018-07-08T10:16:42.666Z,49.70
2018-07-08T10:19:11.697Z,51.30
2018-07-08T10:21:39.981Z,51.70
2018-07-08T10:24:08.391Z,49.60
2018-07-08T10:26:36.789Z,49.10
2018-07-08T10:29:05.429Z,48.40
2018-07-08T10:31:52.006Z,47.90
2018-07-08T10:34:20.510Z,47.90
2018-07-08T10:36:48.820Z,46.80
2018-07-08T10:39:17.404Z,47.10
2018-07-08T10:41:45.685Z,47.90
2018-07-08T10:44:13.997Z,47.20
2018-07-08T10:46:42.834Z,47.00
2018-07-08T10:49:11.135Z,45.80
2018-07-08T10:51:39.437Z,45.90
2018-07-08T10:54:07.965Z,47.40
2018-07-08T10:56:37.350Z,45.90
2018-07-08T10:59:05.716Z,46.90
2018-07-08T11:01:33.984Z,46.30
2018-07-08T11:04:02.365Z,46.40
2018-07-08T11:06:30.608Z,45.20
2018-07-08T11:08:58.900Z,44.50
2018-07-08T11:11:27.165Z,44.30
2018-07-08T11:13:55.476Z,46.10
2018-07-08T11:16:23.756Z,44.20
2018-07-08T11:18:52.048Z,44.80
2018-07-08T11:21:20.400Z,44.00
2018-07-08T11:23:48.604Z,44.80
2018-07-08T11:26:16.880Z,43.90
2018-07-08T11:28:45.133Z,43.80
2018-07-08T11:31:13.387Z,43.20
2018-07-08T11:33:41.636Z,45.20
2018-07-08T11:36:09.936Z,43.80
2018-07-08T11:38:38.189Z,44.90
2018-07-08T11:41:06.457Z,42.90
2018-07-08T11:43:34.708Z,42.80
2018-07-08T11:46:02.983Z,42.50
2018-07-08T11:48:31.233Z,44.10
2018-07-08T11:50:59.476Z,44.20
2018-07-08T11:53:27.715Z,43.80
2018-07-08T11:55:55.981Z,43.20
2018-07-08T11:58:24.245Z,43.90
2018-07-08T12:00:52.531Z,44.00
2018-07-08T12:03:20.797Z,45.60
2018-07-08T12:05:49.120Z,44.10
2018-07-08T12:08:17.372Z,46.20
2018-07-08T12:10:45.626Z,43.50
2018-07-08T12:13:13.893Z,43.80
2018-07-08T12:15:42.144Z,43.60
2018-07-08T12:18:10.391Z,44.40
2018-07-08T12:20:39.247Z,45.00
2018-07-08T12:23:07.536Z,45.30
2018-07-08T12:25:35.789Z,47.40
2018-07-08T12:28:04.073Z,44.20
2018-07-08T12:30:32.409Z,45.40
2018-07-08T12:33:00.661Z,43.30
2018-07-08T12:35:28.928Z,45.10
2018-07-08T12:37:57.210Z,43.30
2018-07-08T12:40:25.484Z,43.50
2018-07-08T12:42:53.749Z,43.20
2018-07-08T12:45:22.004Z,43.60
2018-07-08T12:47:50.263Z,44.80
2018-07-08T12:50:18.527Z,43.30
2018-07-08T12:52:46.780Z,44.80
2018-07-08T12:55:15.043Z,45.20
2018-07-08T12:57:43.300Z,44.60
2018-07-08T13:00:11.568Z,43.50
2018-07-08T13:02:39.823Z,44.60
2018-07-08T13:05:08.181Z,42.60
2018-07-08T13:07:36.444Z,44.20
2018-07-08T13:10:04.757Z,45.40
2018-07-08T13:12:39.336Z,44.50
2018-07-08T13:15:07.608Z,46.00
2018-07-08T13:17:35.871Z,44.70
2018-07-08T13:20:04.559Z,44.50
2018-07-08T13:22:32.801Z,42.50
2018-07-08T13:25:01.085Z,42.20
2018-07-08T13:27:29.341Z,40.90
2018-07-08T13:29:57.865Z,41.40
2018-07-08T13:32:26.187Z,40.50
2018-07-08T13:34:54.402Z,40.30
2018-07-08T13:37:22.681Z,40.80
2018-07-08T13:39:50.977Z,41.30
2018-07-08T13:42:19.224Z,42.80
2018-07-08T13:44:47.520Z,42.20
2018-07-08T13:47:15.784Z,42.10
2018-07-08T13:49:44.088Z,43.00
2018-07-08T13:52:12.359Z,42.40
2018-07-08T13:54:40.633Z,43.40
2018-07-08T13:57:08.945Z,43.00
2018-07-08T13:59:37.392Z,42.50
2018-07-08T14:02:05.709Z,42.20
2018-07-08T14:04:34.649Z,43.50
2018-07-08T14:07:02.898Z,41.90
2018-07-08T14:09:31.690Z,41.20
2018-07-08T14:11:59.960Z,44.00
2018-07-08T14:14:28.287Z,43.30
2018-07-08T14:16:56.581Z,42.20
2018-07-08T14:19:24.868Z,41.30
2018-07-08T14:21:53.169Z,41.90
2018-07-08T14:24:21.458Z,42.00
2018-07-08T14:26:49.752Z,42.20
2018-07-08T14:29:18.031Z,42.00
2018-07-08T14:31:46.280Z,41.70
2018-07-08T14:34:14.547Z,43.30
2018-07-08T14:36:42.836Z,41.60
2018-07-08T14:39:11.184Z,42.10
2018-07-08T14:41:39.462Z,41.90
2018-07-08T14:44:07.724Z,41.00
2018-07-08T14:46:35.989Z,41.10
2018-07-08T14:49:04.298Z,42.90
2018-07-08T14:51:32.575Z,42.90
2018-07-08T14:54:00.912Z,40.70
2018-07-08T14:56:29.167Z,40.50
2018-07-08T14:58:57.421Z,41.90
2018-07-08T15:01:25.673Z,40.90
2018-07-08T15:03:55.600Z,40.60
2018-07-08T15:06:23.967Z,39.90
2018-07-08T15:08:52.252Z,39.50
2018-07-08T15:11:20.525Z,41.20
2018-07-08T15:13:48.812Z,40.60
2018-07-08T15:16:17.137Z,41.40
2018-07-08T15:18:45.483Z,40.70
2018-07-08T15:21:13.857Z,40.00
2018-07-08T15:23:42.145Z,40.10
2018-07-08T15:26:10.420Z,40.50
2018-07-08T15:28:38.710Z,40.10
2018-07-08T15:31:06.988Z,40.20
2018-07-08T15:33:35.312Z,41.80
2018-07-08T15:36:03.623Z,40.20
2018-07-08T15:38:31.904Z,39.60
2018-07-08T15:41:00.233Z,40.10
2018-07-08T15:43:28.510Z,37.80
2018-07-08T15:45:57.008Z,38.00
2018-07-08T15:48:25.273Z,39.80
2018-07-08T15:50:53.553Z,38.60
2018-07-08T15:53:21.872Z,37.50
2018-07-08T15:55:50.139Z,38.90
2018-07-08T15:58:18.416Z,35.30
2018-07-08T16:00:46.754Z,33.90
2018-07-08T16:03:15.037Z,31.90
2018-07-08T16:05:43.516Z,31.70
2018-07-08T16:08:11.813Z,31.20
2018-07-08T16:10:40.067Z,30.00
2018-07-08T16:13:14.906Z,30.00
2018-07-08T16:15:43.193Z,29.30
2018-07-08T16:18:11.575Z,28.30
2018-07-08T16:20:42.654Z,29.40
2018-07-08T16:23:10.948Z,27.10
2018-07-08T16:25:39.192Z,26.50
2018-07-08T16:28:07.469Z,26.50
2018-07-08T16:30:35.802Z,25.70
2018-07-08T16:33:04.079Z,26.30
2018-07-08T16:35:32.369Z,26.00
2018-07-08T16:38:00.626Z,26.50
2018-07-08T16:40:28.892Z,26.60
2018-07-08T16:42:58.076Z,26.40
2018-07-08T16:45:26.348Z,26.20
2018-07-08T16:47:54.623Z,26.60
2018-07-08T16:50:22.898Z,25.30
2018-07-08T16:52:51.138Z,25.10
2018-07-08T16:55:19.405Z,25.20
2018-07-08T16:57:47.700Z,24.00
2018-07-08T17:00:15.964Z,24.90
2018-07-08T17:02:44.205Z,25.50
2018-07-08T17:05:12.463Z,25.70
2018-07-08T17:07:40.741Z,27.50
2018-07-08T17:10:09.022Z,27.00
2018-07-08T17:12:37.283Z,27.00
2018-07-08T17:15:05.559Z,27.10
2018-07-08T17:17:33.853Z,25.90
2018-07-08T17:20:02.118Z,25.40
2018-07-08T17:22:30.368Z,25.80
2018-07-08T17:24:59.517Z,26.30
2018-07-08T17:27:27.808Z,26.50
2018-07-08T17:29:56.500Z,26.20
2018-07-08T17:32:24.779Z,27.00
2018-07-08T17:34:53.075Z,25.70
2018-07-08T17:37:21.404Z,25.50
2018-07-08T17:39:49.669Z,25.40
2018-07-08T17:42:17.996Z,25.90
2018-07-08T17:44:46.400Z,26.90
2018-07-08T17:47:14.794Z,27.00
2018-07-08T17:49:43.168Z,26.30
2018-07-08T17:52:11.451Z,25.90
2018-07-08T17:54:39.825Z,25.80
2018-07-08T17:57:08.076Z,25.70
2018-07-08T17:59:36.349Z,25.70
2018-07-08T18:02:04.638Z,26.70
2018-07-08T18:04:32.900Z,26.50
2018-07-08T18:07:01.388Z,26.30
2018-07-08T18:09:29.641Z,26.20
2018-07-08T18:11:57.910Z,26.20
2018-07-08T18:14:26.226Z,25.30
2018-07-08T18:16:54.557Z,25.40
2018-07-08T18:19:23.641Z,25.90
2018-07-08T18:21:51.944Z,26.10
2018-07-08T18:24:20.217Z,26.40
2018-07-08T18:26:48.484Z,26.70
2018-07-08T18:29:16.746Z,26.90
2018-07-08T18:31:45.011Z,26.90
2018-07-08T18:34:13.287Z,27.20
2018-07-08T18:36:41.580Z,28.70
2018-07-08T18:39:10.371Z,28.50
2018-07-08T18:41:38.740Z,30.00
2018-07-08T18:44:06.998Z,31.30
2018-07-08T18:46:35.266Z,32.60
2018-07-08T18:49:03.506Z,34.10
2018-07-08T18:51:31.795Z,35.00
2018-07-08T18:54:00.308Z,36.10
2018-07-08T18:56:28.560Z,36.10
2018-07-08T18:58:56.893Z,36.60
2018-07-08T19:01:25.137Z,37.00
2018-07-08T19:03:53.860Z,37.40
2018-07-08T19:06:22.167Z,37.70
2018-07-08T19:08:50.500Z,38.30
2018-07-08T19:11:18.813Z,39.00
2018-07-08T19:13:47.097Z,39.20
2018-07-08T19:16:15.352Z,39.50
2018-07-08T19:18:43.636Z,39.80
2018-07-08T19:21:11.887Z,40.20
2018-07-08T19:23:40.131Z,40.40
2018-07-08T19:26:08.430Z,41.00
2018-07-08T19:28:36.684Z,42.20
2018-07-08T19:31:04.968Z,42.00
2018-07-08T19:33:33.226Z,42.30
2018-07-08T19:36:01.666Z,42.10
2018-07-08T19:38:29.973Z,42.40
2018-07-08T19:40:58.253Z,42.30
2018-07-08T19:43:26.560Z,42.60
2018-07-08T19:45:55.814Z,43.30
2018-07-08T19:48:24.072Z,43.50
2018-07-08T19:50:52.338Z,43.80
2018-07-08T19:53:20.629Z,43.40
2018-07-08T19:55:49.006Z,44.20
2018-07-08T19:58:17.284Z,43.90
2018-07-08T20:00:45.595Z,44.70
2018-07-08T20:03:13.845Z,45.30
2018-07-08T20:05:42.107Z,45.20
2018-07-08T20:08:10.384Z,45.90
2018-07-08T20:10:38.637Z,46.00
2018-07-08T20:13:06.896Z,46.30
2018-07-08T20:15:35.227Z,45.80
2018-07-08T20:18:03.488Z,46.60
2018-07-08T20:20:31.785Z,47.20
2018-07-08T20:23:00.047Z,46.50
2018-07-08T20:25:28.335Z,47.10
2018-07-08T20:27:56.646Z,47.40
2018-07-08T20:30:24.904Z,49.20
2018-07-08T20:32:53.184Z,49.50
2018-07-08T20:35:21.473Z,51.20
2018-07-08T20:37:49.710Z,49.70
2018-07-08T20:40:17.968Z,48.80
2018-07-08T20:42:46.253Z,50.90
2018-07-08T20:45:14.516Z,50.10
2018-07-08T20:47:42.776Z,50.10
2018-07-08T20:50:11.029Z,52.40
2018-07-08T20:52:39.316Z,52.60
2018-07-08T20:55:07.587Z,51.80
2018-07-08T20:57:35.905Z,54.10
2018-07-08T21:00:04.421Z,54.10
2018-07-08T21:02:32.688Z,54.90
2018-07-08T21:05:00.973Z,55.90
2018-07-08T21:07:29.239Z,55.70
2018-07-08T21:09:57.534Z,55.30
2018-07-08T21:12:25.820Z,54.80
2018-07-08T21:14:54.604Z,54.30
2018-07-08T21:17:22.862Z,54.60
2018-07-08T21:19:51.168Z,55.40
2018-07-08T21:22:19.434Z,56.00
2018-07-08T21:24:47.737Z,56.20
2018-07-08T21:27:15.996Z,56.70
2018-07-08T21:29:44.296Z,57.10
2018-07-08T21:32:12.603Z,57.80
2018-07-08T21:34:40.907Z,58.60
2018-07-08T21:37:09.147Z,58.70
2018-07-08T21:39:37.476Z,59.00
2018-07-08T21:42:05.740Z,58.00
2018-07-08T21:44:34.007Z,58.80
2018-07-08T21:47:02.290Z,59.20
2018-07-08T21:49:30.536Z,59.60
2018-07-08T21:51:58.824Z,61.40
2018-07-08T21:54:27.109Z,60.70
2018-07-08T21:56:55.384Z,60.00
2018-07-08T21:59:23.673Z,60.10
2018-07-08T22:02:02.390Z,61.50
2018-07-08T22:04:30.690Z,61.70
2018-07-08T22:07:04.385Z,61.90
2018-07-08T22:09:39.108Z,63.00
2018-07-08T22:12:07.381Z,63.90
2018-07-08T22:14:35.649Z,64.60
2018-07-08T22:17:03.953Z,64.70
2018-07-08T22:19:32.233Z,63.70
2018-07-08T22:22:00.749Z,63.70
2018-07-08T22:24:29.027Z,65.50
2018-07-08T22:26:57.357Z,66.20
2018-07-08T22:29:25.676Z,67.20
2018-07-08T22:31:53.937Z,67.10
2018-07-08T22:34:22.210Z,68.30
2018-07-08T22:36:50.498Z,68.60
2018-07-08T22:39:18.756Z,69.10
2018-07-08T22:41:47.047Z,68.30
2018-07-08T22:44:15.307Z,68.60
2018-07-08T22:46:43.597Z,68.60
2018-07-08T22:49:11.867Z,69.40
2018-07-08T22:51:40.147Z,69.90
2018-07-08T22:54:08.461Z,70.20
2018-07-08T22:56:36.760Z,72.00
2018-07-08T22:59:05.209Z,72.80
2018-07-08T23:01:43.546Z,73.20
2018-07-08T23:04:12.372Z,72.70
2018-07-08T23:06:40.616Z,73.90
2018-07-08T23:09:08.903Z,74.00
2018-07-08T23:11:37.192Z,74.40
2018-07-08T23:14:05.489Z,74.00
2018-07-08T23:16:33.746Z,74.40
2018-07-08T23:19:01.992Z,75.10
2018-07-08T23:21:30.497Z,75.30
2018-07-08T23:23:58.739Z,75.10
2018-07-08T23:26:27.028Z,75.90
2018-07-08T23:28:55.280Z,76.40
2018-07-08T23:31:23.521Z,76.20
2018-07-08T23:33:51.802Z,77.30
2018-07-08T23:36:20.069Z,77.80
2018-07-08T23:38:48.356Z,77.80
2018-07-08T23:41:16.637Z,77.30
2018-07-08T23:43:44.884Z,77.80
2018-07-08T23:46:13.128Z,78.40
2018-07-08T23:48:41.376Z,79.10
2018-07-08T23:51:09.611Z,79.10
2018-07-08T23:53:37.914Z,79.20
2018-07-08T23:56:06.217Z,79.30
2018-07-08T23:58:34.495Z,79.10
